Time;durP1;ratioP1;P1;durP2;ratioP2;P2;SDS_P1;SDS_P2;PMS_P1;PMS_P2;Temp;Humidity;BMP_temperature;BMP_pressure;BME280_temperature;BME280_humidity;BME280_pressure;Samples;Min_cycle;Max_cycle;Signal;HPM_P1;HPM_P2
2022/02/12 00:00:06;;;;;;;;;59.75;47.50;;;;;7.96;98.25;102974.72;5031224;27;45471;-76
2022/02/12 00:02:32;;;;;;;;;63.50;50.00;;;;;7.92;98.13;102972.63;5097043;27;46116;-77
2022/02/12 00:04:57;;;;;;;;;61.75;50.00;;;;;7.90;98.18;102971.59;5096596;27;45319;-77
2022/02/12 00:07:23;;;;;;;;;63.25;50.50;;;;;7.87;98.40;102972.22;5095855;27;45273;-77
2022/02/12 00:09:49;;;;;;;;;65.00;50.75;;;;;7.85;98.65;102963.44;5090736;27;45629;-78
2022/02/12 00:12:14;;;;;;;;;6.50;0.75;;;;;7.83;99.04;102958.91;4975746;28;47208;-77
2022/02/12 00:14:40;;;;;;;;;64.50;50.25;;;;;7.85;99.45;102957.34;4992960;28;45362;-77
2022/02/12 00:17:06;;;;;;;;;66.25;51.75;;;;;7.87;99.68;102961.91;4993469;27;45288;-77
2022/02/12 00:19:31;;;;;;;;;62.25;50.00;;;;;7.89;99.76;102960.34;4993862;28;45556;-77
2022/02/12 00:21:57;;;;;;;;;62.25;49.00;;;;;7.87;99.08;102959.34;4992704;28;45306;-78
2022/02/12 00:24:22;;;;;;;;;60.50;49.25;;;;;7.84;99.40;102953.88;4993015;28;45772;-77
2022/02/12 00:26:51;;;;;;;;;61.50;49.00;;;;;7.79;99.25;102954.22;4992794;27;45887;-81
2022/02/12 00:29:17;;;;;;;;;61.75;50.75;;;;;7.73;99.56;102952.00;4992395;28;45522;-78
2022/02/12 00:31:43;;;;;;;;;63.75;49.00;;;;;7.72;100.00;102957.91;4992655;28;45492;-77
2022/02/12 00:34:08;;;;;;;;;57.75;47.75;;;;;7.72;100.00;102948.50;4992790;28;45312;-78
2022/02/12 00:36:34;;;;;;;;;55.75;45.00;;;;;7.74;100.00;102952.13;4992768;28;45358;-78
2022/02/12 00:39:00;;;;;;;;;58.00;47.25;;;;;7.74;100.00;102949.56;4995171;27;45479;-78
2022/02/12 00:41:26;;;;;;;;;60.50;48.25;;;;;7.73;99.52;102952.88;4992887;28;45298;-78
2022/02/12 00:43:51;;;;;;;;;61.25;48.00;;;;;7.75;99.85;102945.31;4992592;28;45248;-77
2022/02/12 00:46:17;;;;;;;;;57.25;48.00;;;;;7.73;100.00;102940.00;4992926;28;45302;-78
2022/02/12 00:48:42;;;;;;;;;55.50;45.25;;;;;7.77;99.95;102941.22;4992673;28;45650;-81
2022/02/12 00:51:08;;;;;;;;;58.25;47.75;;;;;7.78;99.40;102939.53;4991848;27;45465;-81
2022/02/12 00:53:33;;;;;;;;;59.50;48.75;;;;;7.75;99.63;102946.22;4992547;28;45320;-81
2022/02/12 00:55:59;;;;;;;;;54.75;44.50;;;;;7.72;99.77;102935.59;4995619;28;45485;-81
2022/02/12 00:58:24;;;;;;;;;62.50;50.50;;;;;7.69;99.69;102940.50;4995412;27;45367;-81
2022/02/12 01:00:50;;;;;;;;;66.00;49.75;;;;;7.64;100.00;102934.00;4996694;27;46054;-81
2022/02/12 01:03:16;;;;;;;;;62.25;50.00;;;;;7.62;100.00;102937.22;4995936;27;45447;-81
2022/02/12 01:05:41;;;;;;;;;65.50;50.75;;;;;7.63;100.00;102927.03;4995195;28;45480;-78
2022/02/12 01:08:08;;;;;;;;;59.75;48.75;;;;;7.62;100.00;102927.81;4995932;28;45311;-77
2022/02/12 01:10:34;;;;;;;;;59.50;49.00;;;;;7.62;100.00;102921.75;4977746;28;45387;-78
2022/02/12 01:13:01;;;;;;;;;61.75;49.75;;;;;7.56;100.00;102923.00;4995085;28;45827;-78
2022/02/12 01:15:27;;;;;;;;;58.75;47.25;;;;;7.52;100.00;102925.16;4995769;28;45240;-78
2022/02/12 01:17:52;;;;;;;;;60.75;48.75;;;;;7.47;100.00;102913.53;4995488;27;45784;-78
2022/02/12 01:20:18;;;;;;;;;64.75;49.25;;;;;7.46;100.00;102907.47;4977674;28;46401;-79
2022/02/12 01:22:44;;;;;;;;;58.50;46.25;;;;;7.41;100.00;102901.88;4976625;28;45334;-78
2022/02/12 01:25:09;;;;;;;;;65.00;50.75;;;;;7.43;100.00;102908.09;4994230;28;45432;-79
2022/02/12 01:27:36;;;;;;;;;60.75;47.25;;;;;7.41;100.00;102901.00;4997492;27;45752;-78
2022/02/12 01:30:03;;;;;;;;;65.50;50.00;;;;;7.36;100.00;102892.84;4965690;28;46899;-78
2022/02/12 01:32:29;;;;;;;;;64.50;47.25;;;;;7.30;100.00;102888.78;4975862;28;45854;-78
2022/02/12 01:34:55;;;;;;;;;58.25;48.00;;;;;7.25;100.00;102890.94;4978363;28;45275;-78
2022/02/12 01:37:21;;;;;;;;;57.50;47.00;;;;;7.26;100.00;102900.50;4995238;28;45320;-77
2022/02/12 01:39:47;;;;;;;;;60.25;47.00;;;;;7.25;100.00;102903.84;4995029;27;46118;-77
2022/02/12 01:42:13;;;;;;;;;60.00;49.75;;;;;7.24;100.00;102895.19;4994819;27;45431;-78
2022/02/12 01:44:39;;;;;;;;;59.50;47.75;;;;;7.26;100.00;102892.78;4995050;27;45537;-77
2022/02/12 01:47:07;;;;;;;;;55.50;44.75;;;;;7.25;100.00;102893.53;4993666;27;45407;-77
2022/02/12 01:49:33;;;;;;;;;60.00;48.00;;;;;7.25;100.00;102889.28;5022128;27;46170;-78
2022/02/12 01:52:00;;;;;;;;;61.50;47.00;;;;;7.26;100.00;102880.78;5024700;27;46006;-78
2022/02/12 01:54:28;;;;;;;;;62.75;48.00;;;;;7.30;100.00;102875.91;5070327;27;45484;-77
2022/02/12 01:56:56;;;;;;;;;58.75;47.50;;;;;7.33;100.00;102874.53;5010957;27;45786;-78
2022/02/12 01:59:24;;;;;;;;;58.50;46.75;;;;;7.34;100.00;102868.59;4994026;28;45389;-78
2022/02/12 02:01:49;;;;;;;;;55.50;45.75;;;;;7.37;100.00;102860.25;4994626;28;45477;-77
2022/02/12 02:04:17;;;;;;;;;53.00;42.50;;;;;7.41;100.00;102842.63;4994550;27;45558;-77
2022/02/12 02:06:43;;;;;;;;;54.50;45.25;;;;;7.44;100.00;102836.84;4994990;28;45410;-78
2022/02/12 02:09:09;;;;;;;;;48.50;41.50;;;;;7.51;100.00;102838.28;4994921;28;45446;-77
2022/02/12 02:11:36;;;;;;;;;54.25;45.75;;;;;7.55;99.31;102835.22;4994527;27;45419;-77
2022/02/12 02:14:05;;;;;;;;;53.25;42.75;;;;;7.56;98.89;102837.03;4995425;27;45355;-77
2022/02/12 02:16:31;;;;;;;;;57.75;46.00;;;;;7.57;98.92;102832.00;4995155;28;45426;-77
2022/02/12 02:18:56;;;;;;;;;54.75;44.25;;;;;7.58;98.94;102831.25;4994082;28;46264;-76
2022/02/12 02:21:26;;;;;;;;;54.75;44.00;;;;;7.61;98.88;102827.13;5011208;27;45448;-77
2022/02/12 02:23:52;;;;;;;;;51.75;42.00;;;;;7.63;98.15;102823.91;4994410;28;45407;-77
2022/02/12 02:26:19;;;;;;;;;55.75;45.75;;;;;7.62;97.92;102829.84;4995188;27;45330;-77
2022/02/12 02:28:45;;;;;;;;;54.75;43.25;;;;;7.56;98.38;102829.31;4993333;28;45477;-77
2022/02/12 02:31:11;;;;;;;;;56.75;46.00;;;;;7.48;99.20;102820.00;4976655;28;45837;-78
2022/02/12 02:33:36;;;;;;;;;57.50;46.50;;;;;7.43;99.79;102811.84;4994153;28;45355;-77
2022/02/12 02:36:02;;;;;;;;;55.75;45.25;;;;;7.41;100.00;102811.69;4994814;27;45398;-78
2022/02/12 02:38:28;;;;;;;;;59.00;45.50;;;;;7.42;100.00;102805.78;4993526;28;45687;-78
2022/02/12 02:40:54;;;;;;;;;51.50;40.50;;;;;7.40;100.00;102802.16;5050966;27;45338;-77
2022/02/12 02:43:22;;;;;;;;;53.00;42.75;;;;;7.43;100.00;102806.69;4994846;27;45476;-77
2022/02/12 02:45:48;;;;;;;;;48.75;41.25;;;;;7.47;99.79;102797.56;4994037;28;45447;-78
2022/02/12 02:48:13;;;;;;;;;33.00;28.50;;;;;7.51;97.74;102792.81;4994079;28;45598;-77
2022/02/12 02:56:10;;;;;;;;;29.00;27.00;;;;;7.58;93.70;102790.00;4994625;28;45370;-77
2022/02/12 02:58:39;;;;;;;;;27.50;25.50;;;;;7.62;93.02;102782.56;4993868;28;45551;-78
2022/02/12 03:01:16;;;;;;;;;26.50;20.00;;;;;7.61;92.24;102771.34;4993487;28;45418;-77
2022/02/12 03:03:45;;;;;;;;;27.50;22.00;;;;;7.62;91.57;102769.66;5000535;27;45518;-78
2022/02/12 03:06:12;;;;;;;;;43.00;36.75;;;;;7.61;93.31;102768.78;4994413;28;45441;-78
2022/02/12 03:08:38;;;;;;;;;40.25;35.25;;;;;7.57;94.74;102765.00;4993818;27;46197;-77
2022/02/12 03:11:07;;;;;;;;;55.25;44.75;;;;;7.45;95.58;102753.59;4994240;28;45452;-78
2022/02/12 03:13:33;;;;;;;;;45.00;38.00;;;;;7.38;95.84;102765.06;4994413;28;45331;-77
2022/02/12 03:15:59;;;;;;;;;53.75;41.50;;;;;7.30;96.54;102758.28;4994737;27;45415;-80
2022/02/12 03:18:28;;;;;;;;;49.75;42.00;;;;;7.21;97.38;102754.88;5061785;27;45390;-81
2022/02/12 03:20:54;;;;;;;;;50.25;40.25;;;;;7.11;98.08;102751.47;5022917;27;45880;-80
2022/02/12 03:23:20;;;;;;;;;41.75;38.50;;;;;7.00;98.90;102747.03;4994114;28;45348;-76
2022/02/12 03:25:46;;;;;;;;;47.50;39.50;;;;;6.94;99.67;102760.25;4993858;28;45564;-78
2022/02/12 03:28:12;;;;;;;;;53.25;42.25;;;;;6.90;99.67;102745.31;4978247;28;46941;-77
2022/02/12 03:30:41;;;;;;;;;55.25;42.25;;;;;6.83;100.00;102745.50;4992914;28;45564;-78
2022/02/12 03:33:07;;;;;;;;;52.25;41.00;;;;;6.81;100.00;102739.28;4993734;28;45377;-77
2022/02/12 03:35:34;;;;;;;;;48.00;41.75;;;;;6.80;100.00;102742.66;4985832;28;45261;-77
2022/02/12 03:38:07;;;;;;;;;40.25;37.00;;;;;6.76;100.00;102731.16;4976310;28;47696;-77
2022/02/12 03:40:36;;;;;;;;;45.50;39.00;;;;;6.77;100.00;102735.53;4993448;28;45438;-77
2022/02/12 03:43:03;;;;;;;;;43.50;38.50;;;;;6.79;100.00;102728.88;5068585;27;45342;-77
2022/02/12 03:45:28;;;;;;;;;46.25;40.50;;;;;6.78;100.00;102739.94;5081606;27;45283;-77
2022/02/12 03:47:54;;;;;;;;;46.50;38.00;;;;;6.78;100.00;102731.31;4975477;28;45778;-77
2022/02/12 03:50:20;;;;;;;;;46.00;37.50;;;;;6.79;100.00;102726.28;4993152;27;45461;-77
2022/02/12 03:52:45;;;;;;;;;35.50;34.75;;;;;6.80;100.00;102717.81;4992535;28;45536;-77
2022/02/12 03:55:11;;;;;;;;;37.25;35.00;;;;;6.82;100.00;102712.78;4994078;27;45552;-77
2022/02/12 03:57:36;;;;;;;;;48.50;38.00;;;;;6.81;100.00;102713.56;5022818;27;46080;-77
2022/02/12 04:00:08;;;;;;;;;42.00;36.50;;;;;6.81;100.00;102709.31;4992788;28;45501;-77
2022/02/12 04:02:34;;;;;;;;;50.50;42.00;;;;;6.79;100.00;102703.13;4970731;28;45362;-78
2022/02/12 04:05:00;;;;;;;;;43.50;35.75;;;;;6.77;100.00;102706.34;4993539;28;45550;-78
2022/02/12 04:07:25;;;;;;;;;47.75;38.50;;;;;6.76;100.00;102705.41;4992909;28;45455;-78
2022/02/12 04:09:51;;;;;;;;;40.25;33.75;;;;;6.76;100.00;102705.41;4993112;28;45297;-78
2022/02/12 04:12:16;;;;;;;;;28.00;23.00;;;;;6.75;100.00;102698.44;4993205;28;45508;-78
2022/02/12 04:14:42;;;;;;;;;42.25;38.25;;;;;6.74;100.00;102694.09;4993378;27;45613;-79
2022/02/12 04:17:07;;;;;;;;;37.00;35.50;;;;;6.74;100.00;102699.25;4994996;27;45878;-78
2022/02/12 04:19:33;;;;;;;;;38.75;36.25;;;;;6.74;100.00;102691.53;4992948;28;45299;-78
2022/02/12 04:21:59;;;;;;;;;45.50;38.50;;;;;6.74;100.00;102693.19;4993230;28;45521;-78
2022/02/12 04:24:24;;;;;;;;;40.00;35.75;;;;;6.74;100.00;102681.22;4993485;28;45564;-79
2022/02/12 04:26:50;;;;;;;;;40.50;36.00;;;;;6.73;100.00;102681.06;4992749;28;46207;-78
2022/02/12 04:29:15;;;;;;;;;44.00;35.75;;;;;6.73;100.00;102682.00;5013344;27;45357;-78
2022/02/12 04:31:41;;;;;;;;;45.75;38.25;;;;;6.73;100.00;102674.28;4995604;28;45519;-77
2022/02/12 04:34:07;;;;;;;;;38.50;33.75;;;;;6.75;100.00;102677.84;4996541;27;45449;-77
2022/02/12 04:36:32;;;;;;;;;35.25;33.50;;;;;6.72;100.00;102679.25;4996294;28;46416;-78
2022/02/12 04:38:58;;;;;;;;;41.00;33.75;;;;;6.74;100.00;102677.72;4995817;28;45479;-79
2022/02/12 04:41:24;;;;;;;;;37.75;35.25;;;;;6.73;100.00;102673.34;5012929;27;45488;-79
2022/02/12 04:43:50;;;;;;;;;41.25;36.00;;;;;6.73;100.00;102676.84;5053634;27;45521;-76
2022/02/12 04:46:15;;;;;;;;;40.75;35.75;;;;;6.69;100.00;102676.44;4994717;28;45430;-78
2022/02/12 04:48:41;;;;;;;;;40.00;34.75;;;;;6.61;100.00;102679.19;4995513;28;45390;-78
2022/02/12 04:51:07;;;;;;;;;34.50;32.50;;;;;6.62;100.00;102678.44;4978367;28;45257;-78
2022/02/12 04:53:33;;;;;;;;;41.75;35.25;;;;;6.62;100.00;102678.44;4996452;28;45591;-78
2022/02/12 04:55:58;;;;;;;;;39.50;33.75;;;;;6.59;100.00;102674.66;4995985;28;45308;-78
2022/02/12 04:58:24;;;;;;;;;37.00;33.00;;;;;6.54;100.00;102666.53;4995792;28;45267;-77
2022/02/12 05:00:50;;;;;;;;;34.75;33.25;;;;;6.47;100.00;102667.63;4995106;27;45712;-78
2022/02/12 05:03:15;;;;;;;;;32.75;31.00;;;;;6.42;100.00;102663.75;5055699;27;45640;-77
2022/02/12 05:05:41;;;;;;;;;30.50;30.00;;;;;6.41;100.00;102659.38;4999406;27;45440;-78
2022/02/12 05:08:08;;;;;;;;;45.00;34.00;;;;;6.41;100.00;102668.75;5067036;27;45373;-77
2022/02/12 05:10:34;;;;;;;;;34.00;29.25;;;;;6.39;100.00;102667.69;5012870;27;45459;-77
2022/02/12 05:13:00;;;;;;;;;39.00;34.00;;;;;6.39;100.00;102667.69;4996244;27;45625;-78
2022/02/12 05:15:25;;;;;;;;;36.25;32.75;;;;;6.36;100.00;102660.59;4995578;28;45374;-78
2022/02/12 05:17:53;;;;;;;;;41.50;35.00;;;;;6.39;100.00;102659.97;5048601;27;45383;-78
2022/02/12 05:20:19;;;;;;;;;38.50;32.50;;;;;6.33;100.00;102661.25;5099363;27;45500;-77
2022/02/12 05:22:44;;;;;;;;;36.25;34.25;;;;;6.31;100.00;102665.34;5050290;27;45459;-78
2022/02/12 05:25:10;;;;;;;;;33.50;29.75;;;;;6.30;100.00;102652.34;4977573;28;48118;-79
2022/02/12 05:27:36;;;;;;;;;37.75;34.50;;;;;6.30;100.00;102665.19;4995011;27;45372;-79
2022/02/12 05:30:03;;;;;;;;;34.00;32.25;;;;;6.30;100.00;102654.91;4994974;27;45425;-78
2022/02/12 05:32:28;;;;;;;;;36.75;32.25;;;;;6.27;100.00;102649.47;4995822;28;45299;-79
2022/02/12 05:34:56;;;;;;;;;38.00;32.75;;;;;6.23;100.00;102650.88;4995034;28;45986;-78
2022/02/12 05:37:21;;;;;;;;;36.50;33.00;;;;;6.19;100.00;102652.25;4995000;28;45752;-78
2022/02/12 05:39:47;;;;;;;;;36.75;35.00;;;;;6.17;100.00;102635.78;4994191;28;45354;-78
2022/02/12 05:42:12;;;;;;;;;26.75;24.50;;;;;6.12;100.00;102637.00;4997117;27;45454;-77
2022/02/12 05:44:38;;;;;;;;;29.75;29.00;;;;;6.10;100.00;102645.34;4994605;28;45983;-78
2022/02/12 05:47:04;;;;;;;;;35.00;29.50;;;;;6.06;100.00;102639.03;4993449;28;45501;-77
2022/02/12 05:49:29;;;;;;;;;33.00;31.25;;;;;6.04;100.00;102637.97;4994886;27;45497;-77
2022/02/12 05:51:55;;;;;;;;;35.75;29.75;;;;;6.01;100.00;102630.88;4995464;28;45421;-77
2022/02/12 05:54:21;;;;;;;;;35.00;31.00;;;;;6.01;100.00;102623.16;4994563;27;46093;-77
2022/02/12 05:56:46;;;;;;;;;36.00;32.25;;;;;5.95;100.00;102630.25;5011117;27;45346;-77
2022/02/12 05:59:13;;;;;;;;;36.00;32.25;;;;;5.93;100.00;102625.75;5007243;27;45316;-77
2022/02/12 06:01:42;;;;;;;;;30.00;28.00;;;;;5.88;100.00;102610.78;4994477;28;45485;-77
2022/02/12 06:04:08;;;;;;;;;30.75;28.00;;;;;5.86;100.00;102609.75;4976537;28;48029;-77
2022/02/12 06:06:34;;;;;;;;;34.50;29.00;;;;;5.84;100.00;102613.84;4992408;27;45518;-77
2022/02/12 06:09:00;;;;;;;;;36.75;27.50;;;;;5.87;100.00;102610.66;4995161;27;45367;-76
2022/02/12 06:11:25;;;;;;;;;30.75;29.00;;;;;5.87;100.00;102610.66;4994977;28;45339;-77
2022/02/12 06:13:52;;;;;;;;;30.75;29.50;;;;;5.93;100.00;102607.75;4994296;28;45438;-76
2022/02/12 06:16:22;;;;;;;;;31.50;28.75;;;;;5.97;100.00;102594.44;4993909;28;46090;-76
2022/02/12 06:18:48;;;;;;;;;34.75;30.75;;;;;5.99;100.00;102598.97;4994661;28;45371;-76
2022/02/12 06:21:14;;;;;;;;;30.75;28.25;;;;;6.01;100.00;102602.59;4994322;27;45231;-76
2022/02/12 06:23:40;;;;;;;;;31.50;29.25;;;;;6.01;100.00;102589.75;4994656;28;46094;-78
2022/02/12 06:26:06;;;;;;;;;35.75;27.75;;;;;6.05;100.00;102588.34;4996172;27;45461;-77
2022/02/12 06:28:32;;;;;;;;;37.00;35.50;;;;;6.08;100.00;102585.16;4994445;27;45340;-77
2022/02/12 06:31:01;;;;;;;;;35.75;30.00;;;;;6.10;100.00;102573.34;4993949;28;45557;-78
2022/02/12 06:33:27;;;;;;;;;31.50;29.75;;;;;6.08;100.00;102573.22;4994632;28;46297;-77
2022/02/12 06:35:53;;;;;;;;;36.75;32.75;;;;;6.06;100.00;102569.59;4994073;28;45880;-76
2022/02/12 06:38:19;;;;;;;;;45.50;39.25;;;;;6.06;100.00;102578.97;4994203;27;45472;-77
2022/02/12 06:40:46;;;;;;;;;36.25;29.25;;;;;6.06;100.00;102574.75;4978118;27;45855;-76
2022/02/12 06:43:11;;;;;;;;;35.75;31.50;;;;;6.07;100.00;102573.06;4994239;28;45435;-77
2022/02/12 06:45:39;;;;;;;;;33.75;31.25;;;;;6.06;100.00;102569.59;4994461;28;45552;-77
2022/02/12 06:48:05;;;;;;;;;37.25;30.75;;;;;6.10;100.00;102570.78;5048329;27;45406;-76
2022/02/12 06:50:32;;;;;;;;;21.75;15.50;;;;;6.10;100.00;102574.22;5079487;27;45555;-76
2022/02/12 06:52:59;;;;;;;;;29.00;26.50;;;;;6.09;100.00;102571.53;5096550;27;46031;-77
2022/02/12 06:55:25;;;;;;;;;33.50;30.50;;;;;6.08;100.00;102577.44;5014535;27;45941;-77
2022/02/12 06:57:51;;;;;;;;;35.25;28.50;;;;;6.07;100.00;102579.13;5039953;27;45715;-76
2022/02/12 07:00:18;;;;;;;;;30.75;28.25;;;;;6.07;100.00;102580.78;5082715;27;45530;-79
2022/02/12 07:02:43;;;;;;;;;33.00;28.75;;;;;6.03;100.00;102584.72;4993491;28;46102;-78
2022/02/12 07:05:09;;;;;;;;;35.00;28.00;;;;;6.03;100.00;102579.59;4993460;28;45458;-77
2022/02/12 07:07:49;;;;;;;;;31.50;29.75;;;;;6.03;100.00;102583.09;4994457;28;45292;-80
2022/02/12 07:10:16;;;;;;;;;32.50;29.50;;;;;6.03;100.00;102583.09;4977550;28;45478;-78
2022/02/12 07:12:42;;;;;;;;;27.50;27.50;;;;;6.00;100.00;102575.06;4994130;28;45441;-80
2022/02/12 07:15:09;;;;;;;;;34.50;31.25;;;;;6.00;100.00;102579.28;4976139;28;45572;-77
2022/02/12 07:17:39;;;;;;;;;30.00;28.00;;;;;6.01;100.00;102582.03;4994028;28;45486;-78
2022/02/12 07:20:08;;;;;;;;;30.25;27.75;;;;;6.01;100.00;102581.09;4993822;28;45534;-79
2022/02/12 07:22:34;;;;;;;;;36.00;34.75;;;;;6.06;100.00;102578.97;4994617;28;46555;-78
2022/02/12 07:25:00;;;;;;;;;31.25;27.25;;;;;6.06;100.00;102589.25;4993161;28;45425;-78
2022/02/12 07:27:25;;;;;;;;;31.00;27.00;;;;;6.05;100.00;102588.34;5000710;28;45225;-78
2022/02/12 07:29:51;;;;;;;;;30.00;29.50;;;;;6.05;100.00;102585.78;5004146;28;45652;-79
2022/02/12 07:32:17;;;;;;;;;35.75;31.50;;;;;6.03;100.00;102579.59;4995592;27;46630;-79
2022/02/12 07:34:42;;;;;;;;;35.75;30.25;;;;;6.01;100.00;102579.47;4976022;28;45359;-79
2022/02/12 07:37:08;;;;;;;;;31.75;28.50;;;;;6.05;100.00;102578.06;5029318;27;45311;-82
2022/02/12 07:39:34;;;;;;;;;31.75;29.75;;;;;6.05;100.00;102580.63;5004710;27;45532;-82
2022/02/12 07:41:59;;;;;;;;;32.00;26.75;;;;;6.05;99.99;102580.63;5021831;27;46156;-79
2022/02/12 07:44:25;;;;;;;;;35.50;30.00;;;;;6.08;100.00;102583.50;4993805;28;45356;-83
2022/02/12 07:46:51;;;;;;;;;33.75;27.25;;;;;6.11;99.86;102580.28;4993980;27;45326;-79
2022/02/12 07:49:18;;;;;;;;;30.75;26.50;;;;;6.12;99.66;102577.84;4993483;27;45540;-88
2022/02/12 07:51:43;;;;;;;;;34.50;30.00;;;;;6.13;100.00;102577.09;4992197;27;45512;-82
2022/02/12 07:54:09;;;;;;;;;30.00;28.50;;;;;6.11;99.81;102563.19;4991419;27;45434;-81
2022/02/12 07:56:35;;;;;;;;;31.50;28.25;;;;;6.19;99.41;102577.66;4991797;28;45394;-81
2022/02/12 07:59:01;;;;;;;;;25.75;24.50;;;;;6.21;99.65;102569.19;4992692;27;45595;-81
2022/02/12 08:01:26;;;;;;;;;32.75;28.25;;;;;6.23;99.09;102581.41;4992274;28;45406;-80
2022/02/12 08:03:52;;;;;;;;;29.50;25.25;;;;;6.23;98.81;102576.28;4993758;28;45378;-89
2022/02/12 08:09:02;;;;;;;;;27.25;23.00;;;;;6.23;98.50;102577.94;4994326;28;45335;-88
2022/02/12 08:11:35;;;;;;;;;27.75;26.50;;;;;6.19;99.16;102577.66;4975840;28;45625;-84
2022/02/12 08:14:00;;;;;;;;;33.75;28.25;;;;;6.18;99.10;102573.28;4993582;28;45793;-85
2022/02/12 08:16:26;;;;;;;;;28.00;24.75;;;;;6.23;99.54;102575.34;4995013;27;45189;-83
2022/02/12 08:18:51;;;;;;;;;29.00;25.50;;;;;6.22;99.13;102577.03;4994138;27;45260;-83
2022/02/12 08:21:17;;;;;;;;;33.50;27.75;;;;;6.30;99.37;102575.16;4992802;28;46029;-81
2022/02/12 08:23:43;;;;;;;;;25.50;24.75;;;;;6.33;98.85;102568.63;4993339;28;45323;-80
2022/02/12 08:26:08;;;;;;;;;31.50;25.50;;;;;6.35;98.68;102563.59;4993762;28;45248;-84
2022/02/12 08:28:34;;;;;;;;;29.50;24.50;;;;;6.38;98.83;102569.03;5080221;27;45284;-81
2022/02/12 08:31:00;;;;;;;;;23.00;22.00;;;;;6.42;97.91;102559.94;4976050;28;47763;-83
2022/02/12 08:33:26;;;;;;;;;13.75;13.00;;;;;6.43;95.92;102554.91;4996702;27;45445;-80
2022/02/12 08:35:51;;;;;;;;;7.75;7.75;;;;;6.47;94.89;102550.97;5096828;27;45324;-83
2022/02/12 08:38:17;;;;;;;;;12.25;8.75;;;;;6.53;92.16;102546.34;5097064;27;45324;-81
2022/02/12 08:40:43;;;;;;;;;10.25;7.75;;;;;6.60;91.22;102556.41;5098017;27;45503;-83
2022/02/12 08:43:11;;;;;;;;;14.50;10.00;;;;;6.62;90.79;102543.72;5028670;27;45488;-79
2022/02/12 08:45:37;;;;;;;;;7.25;7.25;;;;;6.72;90.65;102548.91;4993751;28;45319;-82
2022/02/12 08:48:06;;;;;;;;;9.50;9.50;;;;;6.76;89.73;102544.91;4992013;28;45463;-79
2022/02/12 08:50:32;;;;;;;;;12.00;8.00;;;;;6.79;88.35;102543.50;4991523;28;45264;-80
2022/02/12 08:52:57;;;;;;;;;10.25;9.00;;;;;6.85;88.57;102547.41;4991984;28;45772;-80
2022/02/12 08:55:24;;;;;;;;;9.50;9.00;;;;;6.89;87.48;102545.25;4991911;28;45505;-79
2022/02/12 08:57:50;;;;;;;;;12.00;10.00;;;;;6.91;84.73;102541.09;4974040;28;45429;-80
2022/02/12 09:00:16;;;;;;;;;14.25;13.25;;;;;6.89;86.04;102534.94;4974207;28;45915;-80
2022/02/12 09:02:41;;;;;;;;;14.50;12.75;;;;;6.93;84.99;102538.69;4992933;28;45341;-80
2022/02/12 09:05:07;;;;;;;;;10.75;9.25;;;;;6.97;83.76;102533.94;4992612;28;45349;-80
2022/02/12 09:07:33;;;;;;;;;13.50;11.00;;;;;6.97;83.80;102525.28;4992586;27;45246;-78
2022/02/12 09:10:00;;;;;;;;;9.25;9.25;;;;;6.98;83.87;102532.25;4992235;28;45566;-80
2022/02/12 09:12:26;;;;;;;;;14.50;11.25;;;;;6.99;83.20;102523.75;4992084;28;45897;-79
2022/02/12 09:14:52;;;;;;;;;16.25;13.75;;;;;7.00;81.43;102516.94;5014198;27;45351;-78
2022/02/12 09:17:18;;;;;;;;;13.00;9.50;;;;;6.93;80.48;102523.22;5092758;27;45792;-79
2022/02/12 09:19:43;;;;;;;;;14.50;13.00;;;;;6.86;80.92;102515.75;4997474;27;45524;-82
2022/02/12 09:22:10;;;;;;;;;15.00;12.25;;;;;6.79;81.69;102520.34;5040148;27;45470;-84
2022/02/12 09:24:36;;;;;;;;;11.00;8.00;;;;;6.78;81.50;102508.25;5066114;27;45371;-86
2022/02/12 09:27:02;;;;;;;;;9.50;8.50;;;;;6.77;82.46;102490.97;4995025;28;45798;-82
2022/02/12 09:29:27;;;;;;;;;15.75;13.75;;;;;6.83;82.03;102490.63;4997079;28;45411;-83
2022/02/12 09:31:53;;;;;;;;;10.25;10.25;;;;;6.88;80.88;102483.28;4995840;28;45358;-83
2022/02/12 09:34:19;;;;;;;;;12.00;9.00;;;;;6.94;80.89;102492.44;4995999;27;45394;-82
2022/02/12 09:36:44;;;;;;;;;15.00;10.50;;;;;6.98;81.26;102493.63;4996623;28;45450;-83
2022/02/12 09:39:10;;;;;;;;;10.50;10.25;;;;;7.01;80.60;102486.16;4977360;28;45516;-82
2022/02/12 09:41:36;;;;;;;;;12.75;11.75;;;;;7.04;80.19;102491.59;4993237;27;45417;-83
2022/02/12 09:44:02;;;;;;;;;13.25;9.25;;;;;7.03;80.17;102488.88;4995071;27;45521;-83
2022/02/12 09:46:31;;;;;;;;;14.00;12.25;;;;;7.10;79.96;102489.53;4999395;27;45628;-83
2022/02/12 09:49:02;;;;;;;;;16.00;13.25;;;;;7.13;79.25;102489.81;4993226;28;45417;-83
2022/02/12 09:51:31;;;;;;;;;14.00;13.25;;;;;7.15;78.93;102484.78;4993379;28;45899;-82
2022/02/12 09:53:58;;;;;;;;;9.00;8.25;;;;;7.23;77.88;102482.84;4975650;28;45390;-83
2022/02/12 09:56:24;;;;;;;;;11.00;10.00;;;;;7.24;76.69;102490.69;4995257;28;45581;-84
2022/02/12 09:58:50;;;;;;;;;13.75;10.50;;;;;7.26;76.81;102485.72;4979042;27;46970;-84
2022/02/12 10:01:18;;;;;;;;;17.00;14.25;;;;;7.28;77.19;102477.31;4994724;28;45569;-81
2022/02/12 10:03:45;;;;;;;;;14.75;10.50;;;;;7.33;76.81;102477.72;4995322;28;45399;-81
2022/02/12 10:06:11;;;;;;;;;14.75;11.75;;;;;7.35;74.03;102473.59;5077601;27;45192;-83
2022/02/12 10:08:41;;;;;;;;;12.50;12.50;;;;;7.39;74.18;102480.84;5055948;27;46339;-82
2022/02/12 10:11:20;;;;;;;;;15.50;10.00;;;;;7.39;72.60;102479.91;4997369;28;45505;-84
2022/02/12 10:13:46;;;;;;;;;15.00;14.00;;;;;7.37;71.13;102466.91;4998276;28;45234;-83
2022/02/12 10:16:12;;;;;;;;;17.00;12.75;;;;;7.32;69.84;102473.31;4996671;27;45178;-83
2022/02/12 10:18:41;;;;;;;;;14.50;14.50;;;;;7.30;69.74;102464.56;4995366;28;46041;-82
2022/02/12 10:21:08;;;;;;;;;15.75;12.00;;;;;7.27;69.70;102451.44;4983584;27;45575;-83
2022/02/12 10:23:39;;;;;;;;;14.00;14.00;;;;;7.25;69.85;102447.81;5099470;27;45360;-83
2022/02/12 10:26:04;;;;;;;;;13.75;12.75;;;;;7.30;70.93;102435.34;5099365;27;45860;-83
2022/02/12 10:28:40;;;;;;;;;13.25;10.00;;;;;7.33;69.63;102421.03;5098494;27;45342;-81
2022/02/12 10:31:06;;;;;;;;;11.50;9.25;;;;;7.39;67.28;102433.53;5098035;27;45865;-81
2022/02/12 10:33:41;;;;;;;;;9.00;8.25;;;;;7.40;67.70;102436.22;5098734;27;45410;-81
2022/02/12 10:36:11;;;;;;;;;12.25;11.50;;;;;7.43;68.22;102433.03;5101873;27;45462;-82
2022/02/12 10:38:36;;;;;;;;;12.00;9.75;;;;;7.48;67.32;102423.97;5055336;27;45347;-83
2022/02/12 10:41:07;;;;;;;;;16.00;10.00;;;;;7.51;67.00;102428.47;5004023;27;45321;-83
2022/02/12 10:43:34;;;;;;;;;8.75;8.25;;;;;7.56;66.94;102432.34;4995621;27;45550;-83
2022/02/12 10:46:01;;;;;;;;;10.50;10.50;;;;;7.52;63.78;102427.72;4994788;28;45569;-83
2022/02/12 10:48:37;;;;;;;;;9.00;9.00;;;;;7.51;64.39;102418.19;4994749;28;45286;-83
2022/02/12 10:51:17;;;;;;;;;6.25;6.25;;;;;7.50;64.91;102424.13;4994695;28;45816;-83
2022/02/12 10:54:06;;;;;;;;;8.75;8.75;;;;;7.54;63.44;102423.59;4994903;28;45420;-81
2022/02/12 10:56:49;;;;;;;;;9.00;8.75;;;;;7.53;62.86;102434.69;4995243;27;45332;-82
2022/02/12 10:59:21;;;;;;;;;6.00;6.00;;;;;7.52;63.79;102425.13;4994960;27;45967;-82
2022/02/12 11:01:47;;;;;;;;;9.25;8.00;;;;;7.54;62.75;102427.09;4994713;28;45533;-81
2022/02/12 11:04:15;;;;;;;;;14.00;11.00;;;;;7.56;63.36;102424.63;4996755;28;45364;-81
2022/02/12 11:06:45;;;;;;;;;12.50;12.50;;;;;7.58;63.62;102428.25;4996920;28;45247;-81
2022/02/12 11:09:12;;;;;;;;;14.25;11.25;;;;;7.61;65.11;102423.34;4993774;28;46526;-80
2022/02/12 11:11:38;;;;;;;;;12.50;10.50;;;;;7.68;65.12;102428.22;4994174;27;45493;-81
2022/02/12 11:14:08;;;;;;;;;11.00;11.00;;;;;7.76;64.82;102405.66;4994432;27;45445;-81
2022/02/12 11:16:37;;;;;;;;;9.50;8.25;;;;;7.84;66.27;102386.56;4976772;28;45521;-81
2022/02/12 11:19:04;;;;;;;;;9.50;8.00;;;;;7.95;65.32;102395.16;4976206;28;46937;-81